Time;durP1;ratioP1;P1;durP2;ratioP2;P2;SDS_P1;SDS_P2;PMS_P1;PMS_P2;Temp;Humidity;BMP_temperature;BMP_pressure;BME280_temperature;BME280_humidity;BME280_pressure;Samples;Min_cycle;Max_cycle;Signal;HPM_P1;HPM_P2
2021/05/26 00:01:40;;;;;;;;;;;;;;;24.50;58.27;101450.41;5037848;28;2125;-71
2021/05/26 00:04:05;;;;;;;;;;;;;;;24.50;57.89;101450.41;5031761;28;1856;-71
2021/05/26 00:06:31;;;;;;;;;;;;;;;24.50;58.05;101444.88;5031650;28;957;-71
2021/05/26 00:08:56;;;;;;;;;;;;;;;24.51;58.18;101448.47;5031753;28;906;-70
2021/05/26 00:11:21;;;;;;;;;;;;;;;24.51;58.12;101446.53;5033079;28;902;-70
2021/05/26 00:13:47;;;;;;;;;;;;;;;24.51;57.86;101443.78;5028756;28;1450;-70
2021/05/26 00:16:13;;;;;;;;;;;;;;;24.52;58.10;101450.91;5032019;28;1031;-70
2021/05/26 00:18:39;;;;;;;;;;;;;;;24.52;57.98;101442.66;5032269;28;877;-70
2021/05/26 00:21:06;;;;;;;;;;;;;;;24.52;57.91;101437.13;5032438;28;1321;-70
2021/05/26 00:23:32;;;;;;;;;;;;;;;24.52;58.09;101428.88;5031981;28;1875;-70
2021/05/26 00:25:57;;;;;;;;;;;;;;;24.54;57.65;101430.53;5032241;28;870;-70
2021/05/26 00:28:22;;;;;;;;;;;;;;;24.53;58.05;101426.97;5032147;28;870;-70
2021/05/26 00:30:50;;;;;;;;;;;;;;;24.52;58.02;101437.13;5031721;28;980;-70
2021/05/26 00:33:16;;;;;;;;;;;;;;;24.52;58.27;101437.13;5032013;28;896;-70
2021/05/26 00:35:42;;;;;;;;;;;;;;;24.52;57.70;101428.88;5032269;28;862;-70
2021/05/26 00:38:07;;;;;;;;;;;;;;;24.52;57.98;101433.56;5031624;28;1233;-70
2021/05/26 00:40:33;;;;;;;;;;;;;;;24.52;58.17;101431.63;5031990;28;867;-70
2021/05/26 00:42:58;;;;;;;;;;;;;;;24.54;57.80;101430.53;5013899;28;1882;-70
2021/05/26 00:45:23;;;;;;;;;;;;;;;24.52;57.83;101433.56;5031986;28;858;-70
2021/05/26 00:47:50;;;;;;;;;;;;;;;24.52;57.97;101426.13;5031662;28;1157;-70
2021/05/26 00:50:23;;;;;;;;;;;;;;;24.54;58.32;101422.25;5031820;28;1177;-70
2021/05/26 00:52:49;;;;;;;;;;;;;;;24.55;58.25;101418.38;5031450;28;810;-70
2021/05/26 00:55:16;;;;;;;;;;;;;;;24.55;58.03;101404.59;5031624;28;834;-70
2021/05/26 00:57:41;;;;;;;;;;;;;;;24.55;57.61;101410.94;5031653;28;862;-70
2021/05/26 01:00:08;;;;;;;;;;;;;;;24.55;58.12;101407.34;5031030;28;1777;-69
2021/05/26 01:02:33;;;;;;;;;;;;;;;24.54;58.16;101406.53;5031404;28;1919;-70
2021/05/26 01:04:58;;;;;;;;;;;;;;;24.55;57.72;101399.09;5031430;28;876;-70
2021/05/26 01:07:24;;;;;;;;;;;;;;;24.55;57.91;101393.59;5031086;28;1955;-70
2021/05/26 01:09:49;;;;;;;;;;;;;;;24.56;57.85;101395.22;5031447;28;846;-70
2021/05/26 01:12:14;;;;;;;;;;;;;;;24.55;57.70;101396.34;5031801;28;1964;-70
2021/05/26 01:14:40;;;;;;;;;;;;;;;24.56;57.57;101392.47;5030436;28;918;-70
2021/05/26 01:17:06;;;;;;;;;;;;;;;24.56;57.93;101398.00;5029998;28;883;-70
2021/05/26 01:19:31;;;;;;;;;;;;;;;24.55;57.76;101388.91;5030408;28;949;-70
2021/05/26 01:21:57;;;;;;;;;;;;;;;24.55;57.76;101380.66;5029671;28;2116;-70
2021/05/26 01:24:22;;;;;;;;;;;;;;;24.55;57.64;101385.31;5029649;28;1470;-70
2021/05/26 01:26:48;;;;;;;;;;;;;;;24.54;57.89;101383.72;5030522;28;881;-70
2021/05/26 01:29:14;;;;;;;;;;;;;;;24.54;57.86;101384.50;5030878;28;798;-70
2021/05/26 01:31:39;;;;;;;;;;;;;;;24.55;57.46;101382.56;5031020;28;924;-70
2021/05/26 01:34:04;;;;;;;;;;;;;;;24.54;57.70;101372.69;5030859;28;1109;-70
2021/05/26 01:36:32;;;;;;;;;;;;;;;24.55;57.72;101374.31;5030950;28;775;-70
2021/05/26 01:38:57;;;;;;;;;;;;;;;24.55;57.53;101372.41;5031033;28;941;-70
2021/05/26 01:41:23;;;;;;;;;;;;;;;24.55;57.49;101379.81;5031232;28;909;-70
2021/05/26 01:43:48;;;;;;;;;;;;;;;24.56;57.69;101379.50;5030761;28;1870;-70
2021/05/26 01:46:13;;;;;;;;;;;;;;;24.56;57.44;101375.97;5030496;28;914;-70
2021/05/26 01:48:39;;;;;;;;;;;;;;;24.56;57.50;101379.50;5031028;28;897;-70
2021/05/26 01:51:04;;;;;;;;;;;;;;;24.56;57.30;101373.19;5030768;28;1261;-70
2021/05/26 01:53:30;;;;;;;;;;;;;;;24.56;57.62;101379.50;5030801;28;874;-70
2021/05/26 01:55:55;;;;;;;;;;;;;;;24.57;57.62;101372.06;5029926;28;907;-70
2021/05/26 01:58:21;;;;;;;;;;;;;;;24.57;57.27;101380.31;5030698;28;860;-70
2021/05/26 02:00:46;;;;;;;;;;;;;;;24.56;57.65;101379.50;5030631;28;980;-70
2021/05/26 02:03:12;;;;;;;;;;;;;;;24.56;57.21;101381.47;5030457;28;1906;-70
2021/05/26 02:05:37;;;;;;;;;;;;;;;24.56;57.22;101385.03;5030260;28;903;-70
2021/05/26 02:08:03;;;;;;;;;;;;;;;24.57;57.33;101385.84;5030571;28;908;-70
2021/05/26 02:13:12;;;;;;;;;;;;;;;24.56;57.56;101375.97;5029866;28;1122;-70
2021/05/26 02:15:38;;;;;;;;;;;;;;;24.56;57.17;101385.03;5030426;28;927;-70
2021/05/26 02:18:03;;;;;;;;;;;;;;;24.56;57.10;101384.22;5029940;28;1690;-71
2021/05/26 02:20:28;;;;;;;;;;;;;;;24.57;56.74;101388.59;5011421;28;1841;-70
2021/05/26 02:22:54;;;;;;;;;;;;;;;24.43;53.47;101386.63;5029468;28;1886;-70
2021/05/26 02:25:19;;;;;;;;;;;;;;;24.40;55.32;101387.22;5029960;28;1635;-70
2021/05/26 02:27:44;;;;;;;;;;;;;;;24.42;53.15;101392.44;5030661;28;882;-74
2021/05/26 02:30:10;;;;;;;;;;;;;;;24.20;52.39;101391.19;5029919;28;1690;-73
2021/05/26 02:32:36;;;;;;;;;;;;;;;24.06;52.52;101388.38;5030408;28;1268;-72
2021/05/26 02:35:01;;;;;;;;;;;;;;;24.01;52.72;101388.50;5029615;28;1602;-73
2021/05/26 02:37:26;;;;;;;;;;;;;;;23.93;52.61;101389.19;5030022;28;893;-73
2021/05/26 02:39:52;;;;;;;;;;;;;;;23.86;52.41;101395.06;5029564;28;985;-73
2021/05/26 02:42:17;;;;;;;;;;;;;;;23.79;52.50;101402.09;5010981;28;1862;-73
2021/05/26 02:44:42;;;;;;;;;;;;;;;23.69;52.81;101395.59;5028697;28;843;-73
2021/05/26 02:47:07;;;;;;;;;;;;;;;23.64;52.85;101394.84;5028772;28;863;-73
2021/05/26 02:49:33;;;;;;;;;;;;;;;23.57;53.00;101392.50;5028672;28;1259;-73
2021/05/26 02:51:58;;;;;;;;;;;;;;;23.54;53.28;101401.31;5029466;28;874;-73
2021/05/26 02:54:23;;;;;;;;;;;;;;;23.49;53.32;101398.66;5029573;28;904;-73
2021/05/26 02:56:49;;;;;;;;;;;;;;;23.46;53.45;101402.00;5029410;28;806;-73
2021/05/26 02:59:14;;;;;;;;;;;;;;;23.41;53.64;101402.09;5029170;28;917;-73
2021/05/26 03:01:39;;;;;;;;;;;;;;;23.37;53.81;101403.78;5029179;28;1930;-73
2021/05/26 03:04:05;;;;;;;;;;;;;;;23.35;53.93;101406.03;5029032;28;894;-73
2021/05/26 03:06:30;;;;;;;;;;;;;;;23.33;54.06;101404.38;5031511;28;822;-73
2021/05/26 03:08:56;;;;;;;;;;;;;;;23.30;53.90;101405.00;5015270;28;1374;-73
2021/05/26 03:11:21;;;;;;;;;;;;;;;23.28;54.02;101407.22;5032893;28;1124;-73
2021/05/26 03:13:46;;;;;;;;;;;;;;;23.25;54.13;101409.72;5032675;28;866;-73
2021/05/26 03:16:12;;;;;;;;;;;;;;;23.18;54.37;101412.84;5032761;28;814;-73
2021/05/26 03:18:37;;;;;;;;;;;;;;;23.16;54.38;101409.59;5032571;28;846;-73
2021/05/26 03:21:03;;;;;;;;;;;;;;;23.11;54.58;101412.38;5033005;28;925;-73
2021/05/26 03:23:28;;;;;;;;;;;;;;;23.09;54.18;101420.91;5032906;28;2305;-73
2021/05/26 03:25:54;;;;;;;;;;;;;;;23.08;54.50;101421.22;5032754;28;814;-73
2021/05/26 03:28:19;;;;;;;;;;;;;;;23.03;54.71;101416.59;5032619;28;885;-73
2021/05/26 03:30:45;;;;;;;;;;;;;;;23.01;54.24;101423.47;5032426;28;885;-73
2021/05/26 03:33:11;;;;;;;;;;;;;;;22.97;54.54;101428.75;5032565;28;807;-73
2021/05/26 03:35:37;;;;;;;;;;;;;;;22.95;54.56;101422.72;5032429;28;818;-73
2021/05/26 03:38:02;;;;;;;;;;;;;;;22.93;54.70;101427.69;5032497;28;964;-73
2021/05/26 03:40:28;;;;;;;;;;;;;;;22.94;54.81;101438.41;5032388;28;855;-73
2021/05/26 03:42:53;;;;;;;;;;;;;;;22.98;54.79;101435.03;5031990;28;1870;-73
2021/05/26 03:45:18;;;;;;;;;;;;;;;22.99;54.95;101429.25;5031997;28;957;-73
2021/05/26 03:47:44;;;;;;;;;;;;;;;23.00;54.55;101435.56;5032434;28;802;-73
2021/05/26 03:50:14;;;;;;;;;;;;;;;23.02;54.44;101436.13;5031940;28;1351;-73
2021/05/26 03:52:43;;;;;;;;;;;;;;;23.01;54.84;101443.53;5032135;28;910;-73
2021/05/26 03:55:09;;;;;;;;;;;;;;;23.00;54.59;101441.06;5032130;28;811;-73
2021/05/26 03:57:35;;;;;;;;;;;;;;;23.02;54.78;101450.72;5031971;28;882;-73
2021/05/26 04:00:00;;;;;;;;;;;;;;;23.03;54.77;101448.75;5030007;28;1732;-71
2021/05/26 04:02:26;;;;;;;;;;;;;;;23.08;56.25;101448.69;5030898;28;1965;-72
2021/05/26 04:04:51;;;;;;;;;;;;;;;23.04;54.88;101456.72;5031901;28;1008;-72
2021/05/26 04:07:16;;;;;;;;;;;;;;;23.03;54.81;101454.25;5031915;28;894;-73
2021/05/26 04:09:42;;;;;;;;;;;;;;;23.06;55.73;101460.00;5032157;28;818;-73
2021/05/26 04:12:07;;;;;;;;;;;;;;;23.07;55.53;101452.56;5028910;28;1658;-73
2021/05/26 04:14:33;;;;;;;;;;;;;;;23.11;55.14;101453.59;5029322;28;1610;-73
2021/05/26 04:16:58;;;;;;;;;;;;;;;23.11;54.99;101459.91;5030075;28;1639;-73
2021/05/26 04:19:23;;;;;;;;;;;;;;;23.10;56.13;101455.53;5030070;28;1759;-73
2021/05/26 04:21:49;;;;;;;;;;;;;;;23.14;55.88;101458.53;5028497;28;1863;-73
2021/05/26 04:24:14;;;;;;;;;;;;;;;23.22;55.83;101457.03;5030224;28;1016;-73
2021/05/26 04:26:39;;;;;;;;;;;;;;;23.27;55.83;101466.03;5030052;28;1307;-73
2021/05/26 04:29:07;;;;;;;;;;;;;;;23.32;55.99;101468.72;5029825;28;1639;-73
2021/05/26 04:31:32;;;;;;;;;;;;;;;23.36;55.80;101459.88;5030594;28;826;-73
2021/05/26 04:33:57;;;;;;;;;;;;;;;23.38;55.97;101466.75;5029991;28;874;-73
2021/05/26 04:36:22;;;;;;;;;;;;;;;23.42;56.40;101472.44;5030571;28;799;-73
2021/05/26 04:38:48;;;;;;;;;;;;;;;23.44;56.52;101483.97;5030505;28;811;-73
2021/05/26 04:41:13;;;;;;;;;;;;;;;23.47;56.72;101480.63;5030324;28;815;-73
2021/05/26 04:43:39;;;;;;;;;;;;;;;23.49;56.54;101478.41;5012393;28;1895;-73
2021/05/26 04:46:04;;;;;;;;;;;;;;;23.50;57.10;101477.28;5028406;28;1730;-73
2021/05/26 04:48:30;;;;;;;;;;;;;;;23.53;57.14;101483.00;5029818;28;956;-73
2021/05/26 04:50:55;;;;;;;;;;;;;;;23.56;57.19;101489.84;5030636;28;1280;-73
2021/05/26 04:53:22;;;;;;;;;;;;;;;23.58;57.55;101481.28;5033963;28;1759;-73
2021/05/26 04:55:48;;;;;;;;;;;;;;;23.58;58.60;101481.28;5030061;28;1556;-72
2021/05/26 04:58:13;;;;;;;;;;;;;;;23.61;59.13;101487.03;5044166;28;1611;-72
2021/05/26 05:00:38;;;;;;;;;;;;;;;23.62;57.94;101496.09;5029488;28;803;-72
2021/05/26 05:03:04;;;;;;;;;;;;;;;23.60;57.24;101493.63;5030112;28;1914;-72
2021/05/26 05:05:32;;;;;;;;;;;;;;;23.62;57.69;101499.66;5027197;28;1692;-72
2021/05/26 05:07:58;;;;;;;;;;;;;;;23.64;57.49;101502.09;5029423;28;1690;-73
2021/05/26 05:10:23;;;;;;;;;;;;;;;23.66;58.17;101508.97;5029215;28;1614;-73
2021/05/26 05:12:48;;;;;;;;;;;;;;;23.67;57.26;101515.28;5027775;28;1602;-73
2021/05/26 05:15:14;;;;;;;;;;;;;;;23.62;56.03;101513.41;5029318;28;2004;-74
2021/05/26 05:17:39;;;;;;;;;;;;;;;23.61;56.55;101513.72;5029328;28;1642;-72
2021/05/26 05:20:05;;;;;;;;;;;;;;;23.66;57.33;101516.38;5029666;28;881;-71
2021/05/26 05:22:30;;;;;;;;;;;;;;;23.75;57.36;101522.06;5029856;28;1874;-74
2021/05/26 05:24:55;;;;;;;;;;;;;;;23.82;57.60;101522.50;5029687;28;780;-72
2021/05/26 05:27:21;;;;;;;;;;;;;;;23.85;57.58;101519.19;5029005;28;854;-73
2021/05/26 05:29:47;;;;;;;;;;;;;;;23.90;57.64;101527.34;5028697;28;933;-73
2021/05/26 05:32:12;;;;;;;;;;;;;;;23.97;57.80;101529.75;5029402;28;905;-69
2021/05/26 05:34:37;;;;;;;;;;;;;;;24.00;58.25;101532.69;5029116;28;1550;-77
2021/05/26 05:37:03;;;;;;;;;;;;;;;24.02;58.10;101530.47;5029278;28;814;-75
2021/05/26 05:39:28;;;;;;;;;;;;;;;24.04;58.42;101524.66;5028821;28;884;-74
2021/05/26 05:41:53;;;;;;;;;;;;;;;24.06;57.48;101523.25;5010205;28;1910;-76
2021/05/26 05:44:18;;;;;;;;;;;;;;;24.09;58.47;101524.59;5017600;28;1826;-71
2021/05/26 05:46:44;;;;;;;;;;;;;;;24.11;58.26;101525.13;5049472;28;807;-77
2021/05/26 05:49:09;;;;;;;;;;;;;;;24.12;58.81;101519.28;5042001;28;1935;-74
2021/05/26 05:51:34;;;;;;;;;;;;;;;24.13;59.10;101523.69;5029763;28;1133;-74
2021/05/26 05:54:00;;;;;;;;;;;;;;;24.15;58.78;101517.91;5030272;28;867;-73
2021/05/26 05:56:25;;;;;;;;;;;;;;;24.16;59.23;101511.25;5030062;28;1254;-74
2021/05/26 05:58:50;;;;;;;;;;;;;;;24.18;59.23;101514.53;5029923;28;1258;-74
2021/05/26 06:01:15;;;;;;;;;;;;;;;24.19;58.70;101516.19;5030285;28;1542;-73
2021/05/26 06:03:41;;;;;;;;;;;;;;;24.21;59.52;101510.38;5030737;28;1968;-72
2021/05/26 06:06:08;;;;;;;;;;;;;;;24.22;59.16;101514.75;5030870;28;918;-69
2021/05/26 06:08:33;;;;;;;;;;;;;;;24.24;59.33;101518.03;5030554;28;1130;-73
2021/05/26 06:10:58;;;;;;;;;;;;;;;24.27;59.62;101523.75;5030171;28;980;-74
2021/05/26 06:13:24;;;;;;;;;;;;;;;24.30;59.52;101520.38;5028706;28;1240;-73
2021/05/26 06:15:49;;;;;;;;;;;;;;;24.30;59.27;101527.81;5029263;28;885;-73
2021/05/26 06:18:17;;;;;;;;;;;;;;;24.30;58.95;101534.13;5011666;28;1194;-74
2021/05/26 06:20:42;;;;;;;;;;;;;;;24.30;58.80;101528.63;5029696;28;815;-73
2021/05/26 06:23:08;;;;;;;;;;;;;;;24.30;58.91;101527.81;5029676;28;1871;-73
2021/05/26 06:25:33;;;;;;;;;;;;;;;24.31;58.84;101519.28;5029160;28;897;-73
2021/05/26 06:27:58;;;;;;;;;;;;;;;24.32;58.35;101520.09;5029154;28;1249;-73
2021/05/26 06:30:24;;;;;;;;;;;;;;;24.32;58.55;101523.66;5029770;28;859;-73
2021/05/26 06:32:49;;;;;;;;;;;;;;;24.32;58.29;101515.38;5029523;28;787;-73
2021/05/26 06:35:14;;;;;;;;;;;;;;;24.33;58.51;101521.72;5029503;28;795;-73
2021/05/26 06:37:41;;;;;;;;;;;;;;;24.35;58.20;101532.41;5029389;28;1148;-74
2021/05/26 06:40:06;;;;;;;;;;;;;;;24.35;58.16;101535.19;5028966;28;863;-73
2021/05/26 06:42:32;;;;;;;;;;;;;;;24.35;58.36;101543.44;5019976;28;1874;-73
2021/05/26 06:44:57;;;;;;;;;;;;;;;24.36;58.09;101537.63;5053375;28;991;-73
2021/05/26 06:47:22;;;;;;;;;;;;;;;24.36;57.84;101537.63;5053290;28;802;-73
2021/05/26 06:49:48;;;;;;;;;;;;;;;24.36;58.09;101537.63;5053122;28;1139;-73
2021/05/26 06:52:13;;;;;;;;;;;;;;;24.37;58.12;101538.44;5053165;28;921;-73
2021/05/26 06:54:38;;;;;;;;;;;;;;;24.38;58.02;101538.16;5052768;28;791;-73
2021/05/26 06:57:04;;;;;;;;;;;;;;;24.39;57.87;101526.03;5051655;28;1291;-73
2021/05/26 06:59:29;;;;;;;;;;;;;;;24.39;57.58;101528.78;5033068;28;1021;-73
2021/05/26 07:01:54;;;;;;;;;;;;;;;24.39;57.62;101537.03;5033308;28;1906;-73
2021/05/26 07:04:20;;;;;;;;;;;;;;;24.40;57.45;101535.91;5033686;28;826;-73
2021/05/26 07:06:45;;;;;;;;;;;;;;;24.41;57.39;101525.72;5032981;28;843;-74
2021/05/26 07:09:10;;;;;;;;;;;;;;;24.41;57.40;101528.47;5032496;28;790;-73
2021/05/26 07:11:36;;;;;;;;;;;;;;;24.42;57.20;101521.84;5032876;28;870;-73
2021/05/26 07:14:01;;;;;;;;;;;;;;;24.41;57.45;101521.03;5032387;28;1290;-73
2021/05/26 07:16:26;;;;;;;;;;;;;;;24.41;57.58;101523.78;5032805;28;799;-73
2021/05/26 07:18:52;;;;;;;;;;;;;;;24.43;57.47;101518.00;5032686;28;858;-73
2021/05/26 07:21:17;;;;;;;;;;;;;;;24.43;57.43;101520.75;5014633;28;1281;-73
2021/05/26 07:23:43;;;;;;;;;;;;;;;24.43;57.05;101515.25;5014383;28;1883;-73
2021/05/26 07:26:08;;;;;;;;;;;;;;;24.43;57.08;101512.50;5032651;28;889;-73
2021/05/26 07:28:36;;;;;;;;;;;;;;;24.44;57.18;101516.88;5032149;28;1253;-73
2021/05/26 07:31:01;;;;;;;;;;;;;;;24.44;56.88;101522.38;5014384;28;1575;-73
2021/05/26 07:33:26;;;;;;;;;;;;;;;24.43;56.99;101513.28;5031459;28;886;-72
2021/05/26 07:35:52;;;;;;;;;;;;;;;24.42;57.56;101511.66;5032454;28;866;-72
2021/05/26 07:38:17;;;;;;;;;;;;;;;24.42;56.39;101519.09;5014358;28;1429;-72
2021/05/26 07:40:43;;;;;;;;;;;;;;;24.36;54.55;101515.59;5030966;28;810;-72
2021/05/26 07:43:08;;;;;;;;;;;;;;;24.32;54.04;101525.59;5031337;28;1941;-72
2021/05/26 07:45:35;;;;;;;;;;;;;;;24.27;53.43;101526.50;5013335;28;1322;-72
2021/05/26 07:48:01;;;;;;;;;;;;;;;24.27;53.68;101528.44;5032126;28;916;-72
2021/05/26 07:50:26;;;;;;;;;;;;;;;24.25;52.58;101519.66;5032360;28;1022;-72
2021/05/26 07:52:51;;;;;;;;;;;;;;;24.28;53.96;101524.56;5030988;28;912;-72
2021/05/26 07:55:17;;;;;;;;;;;;;;;24.33;54.29;101508.78;5032295;28;840;-72
2021/05/26 07:57:42;;;;;;;;;;;;;;;24.36;54.35;101510.09;5026854;28;1226;-73
2021/05/26 08:00:08;;;;;;;;;;;;;;;24.39;54.38;101515.03;5023788;28;888;-72
2021/05/26 08:02:34;;;;;;;;;;;;;;;24.39;54.84;101512.25;5029571;28;1973;-72
2021/05/26 08:04:59;;;;;;;;;;;;;;;24.42;55.03;101516.34;5025748;28;887;-73
2021/05/26 08:07:24;;;;;;;;;;;;;;;24.44;54.98;101520.41;5025351;28;1238;-72
2021/05/26 08:09:50;;;;;;;;;;;;;;;24.45;55.09;101515.75;5024130;28;2104;-73
2021/05/26 08:12:15;;;;;;;;;;;;;;;24.45;55.13;101513.00;5023480;28;1181;-73
2021/05/26 08:14:41;;;;;;;;;;;;;;;24.46;55.34;101511.88;5024146;28;1824;-72
2021/05/26 08:17:06;;;;;;;;;;;;;;;24.47;55.51;101510.75;5021156;28;1623;-73
2021/05/26 08:19:32;;;;;;;;;;;;;;;24.48;55.65;101512.38;5022498;28;914;-72
2021/05/26 08:21:57;;;;;;;;;;;;;;;24.48;55.54;101510.44;5020583;28;1870;-73
2021/05/26 08:24:22;;;;;;;;;;;;;;;24.47;55.85;101500.56;5021368;28;1709;-75
2021/05/26 08:26:49;;;;;;;;;;;;;;;24.47;56.24;101502.50;5001860;28;1618;-72
2021/05/26 08:29:15;;;;;;;;;;;;;;;24.48;56.29;101507.69;5014606;28;1428;-72
2021/05/26 08:31:40;;;;;;;;;;;;;;;24.47;56.38;101503.31;5018532;28;1525;-75
2021/05/26 08:34:06;;;;;;;;;;;;;;;24.49;56.54;101503.03;5016827;28;1526;-73
2021/05/26 08:36:31;;;;;;;;;;;;;;;24.47;56.15;101502.50;5018050;28;1220;-73
2021/05/26 08:38:56;;;;;;;;;;;;;;;24.44;54.93;101501.16;5020610;28;996;-73
2021/05/26 08:41:23;;;;;;;;;;;;;;;24.43;56.15;101499.53;5020535;28;1314;-74
2021/05/26 08:43:48;;;;;;;;;;;;;;;24.46;56.07;101504.41;5020700;28;1936;-74
2021/05/26 08:46:14;;;;;;;;;;;;;;;24.38;53.72;101499.59;5020848;28;827;-74
2021/05/26 08:48:41;;;;;;;;;;;;;;;24.31;54.42;101497.25;5021452;28;791;-74
2021/05/26 08:51:06;;;;;;;;;;;;;;;24.29;53.75;101488.47;5021706;28;1272;-74
2021/05/26 08:53:33;;;;;;;;;;;;;;;24.25;52.89;101490.19;5028547;28;1311;-72
2021/05/26 08:55:58;;;;;;;;;;;;;;;24.19;52.50;101477.63;5021666;28;944;-72
2021/05/26 08:58:23;;;;;;;;;;;;;;;24.21;52.64;101483.66;5021051;28;1219;-72
2021/05/26 09:00:49;;;;;;;;;;;;;;;24.21;52.82;101483.66;5021355;28;850;-72
2021/05/26 09:03:14;;;;;;;;;;;;;;;24.18;52.69;101481.50;5021412;28;1961;-72
2021/05/26 09:05:40;;;;;;;;;;;;;;;24.18;52.54;101486.19;5019410;28;782;-72
2021/05/26 09:08:16;;;;;;;;;;;;;;;24.20;52.57;101489.47;5003057;28;1195;-72
2021/05/26 09:10:47;;;;;;;;;;;;;;;24.20;52.54;101504.03;5021863;28;791;-72
2021/05/26 09:13:32;;;;;;;;;;;;;;;24.20;52.88;101506.78;5021094;28;1264;-72
2021/05/26 09:15:58;;;;;;;;;;;;;;;24.18;52.57;101508.22;5021079;28;803;-72
2021/05/26 09:18:23;;;;;;;;;;;;;;;24.14;51.75;101508.00;5019961;28;1021;-72
2021/05/26 09:20:49;;;;;;;;;;;;;;;24.13;51.64;101507.19;5020929;28;890;-72
2021/05/26 09:23:20;;;;;;;;;;;;;;;24.10;51.39;101506.94;5020819;28;1878;-72
2021/05/26 09:25:45;;;;;;;;;;;;;;;24.09;51.88;101506.13;5021507;28;854;-72
2021/05/26 09:28:21;;;;;;;;;;;;;;;24.08;51.46;101507.25;5021049;28;1177;-72
2021/05/26 09:31:15;;;;;;;;;;;;;;;24.07;51.78;101508.38;5019441;28;1362;-72
2021/05/26 09:33:41;;;;;;;;;;;;;;;24.06;52.12;101503.97;5015855;28;1235;-72
2021/05/26 09:36:20;;;;;;;;;;;;;;;24.07;52.28;101504.81;5021033;28;783;-72
2021/05/26 09:38:50;;;;;;;;;;;;;;;24.06;51.81;101495.72;5020870;28;830;-72
2021/05/26 09:41:20;;;;;;;;;;;;;;;24.07;52.41;101502.88;5020863;28;814;-72
2021/05/26 09:43:59;;;;;;;;;;;;;;;24.04;51.99;101506.22;5021113;28;1866;-72
2021/05/26 09:46:24;;;;;;;;;;;;;;;24.03;51.45;101501.84;5021038;28;811;-72
2021/05/26 09:48:58;;;;;;;;;;;;;;;24.02;51.45;101508.44;5021145;28;802;-74
2021/05/26 09:51:27;;;;;;;;;;;;;;;24.01;51.40;101520.59;5020560;28;1096;-74
2021/05/26 09:54:08;;;;;;;;;;;;;;;24.01;51.44;101512.31;5020745;28;815;-72
2021/05/26 09:56:34;;;;;;;;;;;;;;;24.02;51.56;101511.19;5018489;28;759;-72
2021/05/26 09:59:03;;;;;;;;;;;;;;;24.02;51.54;101516.69;5019760;28;1293;-72
2021/05/26 10:01:29;;;;;;;;;;;;;;;24.02;51.43;101513.94;5020636;28;917;-72
2021/05/26 10:03:55;;;;;;;;;;;;;;;23.99;51.71;101511.81;5020154;28;1962;-72
2021/05/26 10:06:22;;;;;;;;;;;;;;;23.98;51.70;101512.91;5020087;28;818;-72
2021/05/26 10:08:47;;;;;;;;;;;;;;;23.97;51.43;101508.53;5003042;28;1516;-72
2021/05/26 10:11:14;;;;;;;;;;;;;;;23.94;51.61;101506.38;5017342;28;926;-72
2021/05/26 10:13:39;;;;;;;;;;;;;;;23.93;51.76;101522.06;5020248;28;1281;-72
2021/05/26 10:16:06;;;;;;;;;;;;;;;23.95;51.81;101513.53;5020010;28;912;-72
2021/05/26 10:18:31;;;;;;;;;;;;;;;23.95;51.98;101521.78;5019990;28;855;-72
2021/05/26 10:20:57;;;;;;;;;;;;;;;23.95;51.75;101520.97;5019887;28;795;-72
2021/05/26 10:23:22;;;;;;;;;;;;;;;23.92;52.02;101516.84;5018155;28;1870;-72
2021/05/26 10:25:52;;;;;;;;;;;;;;;23.90;52.28;101514.44;5020309;28;865;-72
2021/05/26 10:28:30;;;;;;;;;;;;;;;23.89;52.01;101511.97;5019880;28;1221;-72
2021/05/26 10:30:56;;;;;;;;;;;;;;;23.86;52.17;101518.88;5020525;28;1399;-72
2021/05/26 10:33:41;;;;;;;;;;;;;;;23.85;51.93;101508.19;5019402;28;830;-72
2021/05/26 10:36:11;;;;;;;;;;;;;;;23.82;52.43;101511.50;5017138;28;1106;-72
2021/05/26 10:38:54;;;;;;;;;;;;;;;23.83;52.14;101507.66;5020370;28;854;-72
2021/05/26 10:41:20;;;;;;;;;;;;;;;23.80;52.24;101505.50;5020408;28;1175;-72
2021/05/26 10:43:52;;;;;;;;;;;;;;;23.77;52.10;101509.66;5019014;28;1863;-72
2021/05/26 10:46:31;;;;;;;;;;;;;;;23.78;52.21;101511.28;5020037;28;818;-72
2021/05/26 10:48:57;;;;;;;;;;;;;;;23.73;52.33;101501.16;5017777;28;814;-72
2021/05/26 10:51:42;;;;;;;;;;;;;;;23.75;52.31;101506.34;5019953;28;1039;-72
2021/05/26 10:54:07;;;;;;;;;;;;;;;23.74;52.49;101496.47;5019884;28;1177;-72
2021/05/26 10:56:34;;;;;;;;;;;;;;;23.48;52.63;101460.25;5020232;28;941;-72
2021/05/26 10:59:09;;;;;;;;;;;;;;;23.71;52.41;101500.63;5019278;28;1370;-72
2021/05/26 11:01:55;;;;;;;;;;;;;;;23.67;52.44;101493.28;5018609;28;886;-72
2021/05/26 11:04:20;;;;;;;;;;;;;;;23.67;52.47;101482.28;5020037;28;918;-72
2021/05/26 11:06:45;;;;;;;;;;;;;;;23.64;52.22;101486.44;5018840;28;838;-72
2021/05/26 11:09:11;;;;;;;;;;;;;;;23.65;52.31;101470.75;5019814;28;1159;-72
2021/05/26 11:11:39;;;;;;;;;;;;;;;23.60;52.54;101488.13;5020250;28;849;-72
2021/05/26 11:14:25;;;;;;;;;;;;;;;23.63;52.71;101495.00;5021386;28;1308;-72
2021/05/26 11:16:51;;;;;;;;;;;;;;;23.38;52.57;101446.66;5019648;28;925;-73
2021/05/26 11:19:20;;;;;;;;;;;;;;;23.58;52.43;101468.34;5022390;28;897;-73
2021/05/26 11:21:54;;;;;;;;;;;;;;;23.61;52.62;101477.97;5022171;28;1244;-73
2021/05/26 11:24:20;;;;;;;;;;;;;;;23.67;52.95;101485.03;5022565;28;1132;-73
2021/05/26 11:26:45;;;;;;;;;;;;;;;23.68;53.14;101487.50;5023983;28;1805;-72
2021/05/26 11:29:11;;;;;;;;;;;;;;;23.62;52.62;101480.41;5021426;28;1272;-73
2021/05/26 11:31:37;;;;;;;;;;;;;;;23.59;52.94;101470.00;5022910;28;1249;-73
2021/05/26 11:34:07;;;;;;;;;;;;;;;23.67;53.23;101469.34;5021213;28;1422;-73
2021/05/26 11:36:59;;;;;;;;;;;;;;;23.71;53.33;101470.38;5021853;28;1216;-73
2021/05/26 11:39:29;;;;;;;;;;;;;;;23.74;53.56;101471.69;5020061;28;1015;-73
2021/05/26 11:42:14;;;;;;;;;;;;;;;23.77;53.81;101467.56;5021688;28;1940;-73
2021/05/26 11:44:41;;;;;;;;;;;;;;;23.79;54.14;101474.41;5022964;28;806;-73
2021/05/26 11:47:06;;;;;;;;;;;;;;;23.81;53.89;101465.88;5023578;28;815;-73
2021/05/26 11:49:33;;;;;;;;;;;;;;;23.82;54.00;101471.06;5022812;28;1191;-73
2021/05/26 11:52:02;;;;;;;;;;;;;;;23.84;54.06;101479.03;5023244;28;886;-73
2021/05/26 11:54:28;;;;;;;;;;;;;;;23.85;54.22;101473.22;5021320;28;791;-73
2021/05/26 11:57:07;;;;;;;;;;;;;;;23.86;54.22;101468.53;5022494;28;874;-73
2021/05/26 11:59:33;;;;;;;;;;;;;;;23.87;54.52;101457.22;5002614;28;827;-73
2021/05/26 12:01:58;;;;;;;;;;;;;;;23.88;54.57;101447.03;5003304;28;1906;-73
2021/05/26 12:04:26;;;;;;;;;;;;;;;23.87;54.61;101437.97;5002955;28;863;-73
2021/05/26 12:06:52;;;;;;;;;;;;;;;23.88;54.77;101450.59;5002587;28;783;-73
2021/05/26 12:09:23;;;;;;;;;;;;;;;23.90;54.73;101444.81;5001932;28;815;-73
2021/05/26 12:11:49;;;;;;;;;;;;;;;23.91;54.89;101436.25;5002590;28;854;-73
2021/05/26 12:14:23;;;;;;;;;;;;;;;23.91;54.96;101443.69;5021196;28;1254;-73
2021/05/26 12:16:49;;;;;;;;;;;;;;;23.92;54.87;101450.81;5022485;28;902;-73
2021/05/26 12:19:14;;;;;;;;;;;;;;;23.93;55.05;101455.22;5022412;28;807;-73
2021/05/26 12:21:39;;;;;;;;;;;;;;;23.94;55.11;101459.59;5019985;28;878;-73
2021/05/26 12:24:07;;;;;;;;;;;;;;;23.95;54.93;101461.25;5022160;28;1927;-73
2021/05/26 12:26:37;;;;;;;;;;;;;;;23.95;54.98;101449.44;5004679;28;1311;-73
2021/05/26 12:29:05;;;;;;;;;;;;;;;23.95;55.22;101447.50;5022240;28;1296;-73
2021/05/26 12:31:31;;;;;;;;;;;;;;;23.96;55.17;101437.28;5022423;28;890;-73
2021/05/26 12:33:56;;;;;;;;;;;;;;;23.96;54.78;101427.09;5020115;28;886;-73
2021/05/26 12:36:24;;;;;;;;;;;;;;;23.97;55.01;101428.75;5002831;28;1657;-73
2021/05/26 12:38:56;;;;;;;;;;;;;;;23.98;55.12;101437.81;5029930;28;1495;-78
2021/05/26 12:41:26;;;;;;;;;;;;;;;23.99;55.25;101434.75;5012526;28;1548;-78
2021/05/26 12:43:52;;;;;;;;;;;;;;;24.00;55.29;101432.81;5012125;28;1931;-77
2021/05/26 12:46:56;;;;;;;;;;;;;;;24.00;55.31;101421.81;5013651;28;1796;-80
2021/05/26 12:49:33;;;;;;;;;;;;;;;24.00;55.07;101399.81;4972363;28;1578;-76
2021/05/26 12:52:00;;;;;;;;;;;;;;;24.01;55.04;101398.69;4988206;28;1679;-77
2021/05/26 12:54:25;;;;;;;;;;;;;;;24.00;55.19;101406.13;4999231;28;1072;-78